Time;durP1;ratioP1;P1;durP2;ratioP2;P2;SDS_P1;SDS_P2;PMS_P1;PMS_P2;Temp;Humidity;BMP_temperature;BMP_pressure;BME280_temperature;BME280_humidity;BME280_pressure;Samples;Min_cycle;Max_cycle;Signal;HPM_P1;HPM_P2
2021/03/31 00:00:55;;;;;;;2.80;1.70;;;22.80;30.80;;;;;;5091897;28;20634;-64
2021/03/31 00:03:21;;;;;;;2.60;1.50;;;22.80;30.80;;;;;;5092143;28;20390;-65
2021/03/31 00:05:48;;;;;;;3.10;1.60;;;22.80;30.90;;;;;;5091943;28;20393;-64
2021/03/31 00:08:13;;;;;;;2.70;1.40;;;22.80;31.40;;;;;;5091756;28;20385;-65
2021/03/31 00:10:49;;;;;;;3.00;1.30;;;22.80;30.70;;;;;;5091960;28;20398;-65
2021/03/31 00:13:17;;;;;;;2.65;1.30;;;22.90;30.80;;;;;;5092053;28;20727;-65
2021/03/31 00:15:43;;;;;;;3.20;1.60;;;22.90;30.70;;;;;;5090607;28;20924;-65
2021/03/31 00:18:11;;;;;;;2.40;1.27;;;22.90;30.70;;;;;;5090101;28;20927;-65
2021/03/31 00:20:38;;;;;;;2.60;1.30;;;22.90;30.70;;;;;;5091733;28;20754;-64
2021/03/31 00:23:09;;;;;;;2.60;1.30;;;22.90;30.60;;;;;;5091885;28;20385;-66
2021/03/31 00:25:34;;;;;;;2.50;1.20;;;22.90;30.60;;;;;;5091805;28;20410;-64
2021/03/31 00:28:01;;;;;;;2.63;1.25;;;22.80;30.50;;;;;;5091214;28;20385;-65
2021/03/31 00:30:27;;;;;;;1.70;1.20;;;22.90;30.60;;;;;;5091803;28;20423;-65
2021/03/31 00:32:53;;;;;;;2.15;1.35;;;22.90;30.60;;;;;;5091568;28;20382;-65
2021/03/31 00:35:19;;;;;;;2.27;1.10;;;22.90;30.60;;;;;;5091717;28;20382;-66
2021/03/31 00:37:45;;;;;;;2.03;1.10;;;22.80;31.10;;;;;;5091665;28;20389;-66
2021/03/31 00:40:14;;;;;;;2.20;1.30;;;22.80;30.50;;;;;;5091322;28;20386;-66
2021/03/31 00:42:41;;;;;;;2.33;1.00;;;22.90;30.50;;;;;;5091591;28;20433;-65
2021/03/31 00:45:08;;;;;;;2.10;1.13;;;22.80;30.50;;;;;;5091024;28;20536;-63
2021/03/31 00:47:35;;;;;;;1.75;1.10;;;22.90;30.40;;;;;;5090881;28;20880;-65
2021/03/31 00:50:01;;;;;;;2.00;1.10;;;22.80;30.40;;;;;;5090791;28;20390;-65
2021/03/31 00:52:27;;;;;;;2.42;1.40;;;22.80;30.40;;;;;;5091584;28;20384;-65
2021/03/31 00:54:53;;;;;;;1.90;1.10;;;22.80;30.40;;;;;;5091487;28;20382;-64
2021/03/31 00:57:19;;;;;;;2.13;1.20;;;22.80;30.40;;;;;;5091221;28;20468;-65
2021/03/31 00:59:45;;;;;;;2.03;1.15;;;22.90;30.40;;;;;;5090947;28;20901;-66
2021/03/31 01:02:11;;;;;;;2.22;1.20;;;22.80;30.40;;;;;;5091094;28;20469;-65
2021/03/31 01:04:36;;;;;;;2.10;1.08;;;22.80;30.40;;;;;;5091262;28;20402;-65
2021/03/31 01:07:02;;;;;;;1.70;1.00;;;22.80;30.40;;;;;;5091328;28;20862;-65
2021/03/31 01:09:28;;;;;;;1.90;1.10;;;22.80;30.30;;;;;;5089974;28;20738;-65
2021/03/31 01:12:02;;;;;;;2.17;1.20;;;22.80;30.30;;;;;;5091038;28;20390;-66
2021/03/31 01:15:06;;;;;;;1.90;1.10;;;22.80;30.40;;;;;;5091187;28;20385;-65
2021/03/31 01:17:39;;;;;;;2.10;1.10;;;22.80;30.40;;;;;;5091315;28;20378;-66
2021/03/31 01:20:24;;;;;;;2.10;1.02;;;22.80;30.30;;;;;;5091223;28;20777;-66
2021/03/31 01:23:27;;;;;;;2.20;1.10;;;22.80;30.30;;;;;;5095160;28;20406;-65
2021/03/31 01:26:07;;;;;;;2.05;1.10;;;22.80;30.20;;;;;;5094814;28;20394;-66
2021/03/31 01:28:54;;;;;;;1.80;0.90;;;22.80;30.30;;;;;;5095121;28;20385;-64
2021/03/31 01:31:56;;;;;;;1.65;0.95;;;22.80;30.30;;;;;;5095017;28;20394;-65
2021/03/31 01:34:36;;;;;;;1.58;0.90;;;22.80;30.20;;;;;;5094700;28;20460;-65
2021/03/31 01:37:08;;;;;;;1.80;1.00;;;22.80;30.20;;;;;;5094831;28;20384;-62
2021/03/31 01:39:36;;;;;;;1.60;1.00;;;22.80;30.20;;;;;;5094981;28;20494;-65
2021/03/31 01:42:03;;;;;;;1.90;1.00;;;22.80;30.10;;;;;;5094273;28;20870;-65
2021/03/31 01:44:28;;;;;;;1.75;0.90;;;22.80;30.10;;;;;;5094501;28;20433;-65
2021/03/31 01:46:57;;;;;;;1.67;0.90;;;22.80;30.10;;;;;;5094643;28;20387;-66
2021/03/31 01:49:25;;;;;;;2.88;0.90;;;22.80;30.10;;;;;;5094717;28;20394;-64
2021/03/31 01:52:10;;;;;;;1.75;1.00;;;22.80;30.10;;;;;;5094336;28;20756;-62
2021/03/31 01:54:40;;;;;;;1.65;0.90;;;22.80;30.20;;;;;;5094711;28;20934;-65
2021/03/31 01:57:07;;;;;;;1.58;0.90;;;22.80;30.10;;;;;;5094577;28;20924;-64
2021/03/31 01:59:35;;;;;;;1.60;0.90;;;22.80;30.10;;;;;;5094560;28;20390;-65
2021/03/31 02:02:02;;;;;;;1.50;0.82;;;22.80;30.10;;;;;;5092057;28;20477;-65
2021/03/31 02:04:32;;;;;;;1.90;0.93;;;22.80;30.10;;;;;;5094186;28;20398;-66
2021/03/31 02:06:59;;;;;;;1.98;1.00;;;22.80;30.10;;;;;;5094215;28;20394;-65
2021/03/31 02:09:26;;;;;;;2.08;0.95;;;22.80;30.10;;;;;;5094269;28;20772;-65
2021/03/31 02:11:52;;;;;;;1.85;0.90;;;22.80;30.10;;;;;;5094266;28;20382;-64
2021/03/31 02:14:20;;;;;;;1.67;0.82;;;22.70;30.00;;;;;;5093846;28;20461;-66
2021/03/31 02:16:46;;;;;;;1.40;0.80;;;22.80;30.10;;;;;;5094185;28;20449;-67
2021/03/31 02:19:15;;;;;;;1.58;1.00;;;22.80;30.10;;;;;;5094217;28;20431;-64
2021/03/31 02:21:42;;;;;;;1.95;0.80;;;22.70;30.10;;;;;;5094025;28;20514;-65
2021/03/31 02:24:09;;;;;;;1.60;1.00;;;22.70;30.00;;;;;;5092316;28;20487;-66
2021/03/31 02:26:35;;;;;;;1.75;1.00;;;22.70;30.00;;;;;;5093994;28;20390;-66
2021/03/31 02:29:01;;;;;;;1.40;0.70;;;22.80;30.10;;;;;;5093941;28;20382;-66
2021/03/31 02:31:26;;;;;;;1.90;0.90;;;22.70;30.00;;;;;;5093906;28;20378;-65
2021/03/31 02:33:53;;;;;;;1.60;0.80;;;22.70;30.00;;;;;;5092469;28;20386;-65
2021/03/31 02:36:20;;;;;;;1.52;0.95;;;22.70;30.00;;;;;;5093691;28;20386;-64
2021/03/31 02:38:48;;;;;;;1.63;0.88;;;22.70;30.00;;;;;;5093779;28;20881;-66
2021/03/31 02:41:14;;;;;;;1.55;0.80;;;22.70;30.00;;;;;;5093706;28;20457;-64
2021/03/31 02:43:45;;;;;;;1.38;0.80;;;22.70;30.60;;;;;;5093320;28;20386;-66
2021/03/31 02:46:16;;;;;;;2.20;0.90;;;22.70;30.00;;;;;;5093151;28;20390;-64
2021/03/31 02:48:44;;;;;;;2.05;0.90;;;22.70;30.00;;;;;;5093642;28;20386;-65
2021/03/31 02:51:11;;;;;;;1.38;0.90;;;22.70;30.00;;;;;;5093638;28;20817;-66
2021/03/31 02:53:38;;;;;;;1.38;0.95;;;22.70;30.00;;;;;;5093569;28;20386;-65
2021/03/31 02:56:05;;;;;;;1.73;0.80;;;22.70;30.00;;;;;;5093022;28;20420;-65
2021/03/31 02:58:31;;;;;;;1.50;0.80;;;22.70;30.00;;;;;;5093535;28;20421;-66
2021/03/31 03:00:58;;;;;;;1.50;0.90;;;22.70;30.00;;;;;;5093259;28;20390;-65
2021/03/31 03:03:26;;;;;;;1.50;0.80;;;22.70;30.00;;;;;;5093063;28;20862;-66
2021/03/31 03:05:55;;;;;;;1.77;0.88;;;22.70;30.00;;;;;;5093234;28;20394;-65
2021/03/31 03:08:23;;;;;;;2.40;0.80;;;22.70;30.00;;;;;;5092217;28;20382;-66
2021/03/31 03:10:48;;;;;;;3.10;1.00;;;22.70;30.10;;;;;;5092849;28;20394;-66
2021/03/31 03:13:15;;;;;;;3.63;1.00;;;22.60;31.00;;;;;;5093063;28;20738;-65
2021/03/31 03:15:42;;;;;;;2.20;1.00;;;22.60;30.70;;;;;;5092973;28;20435;-61
2021/03/31 03:18:08;;;;;;;2.40;0.90;;;22.60;30.40;;;;;;5092515;28;20884;-59
2021/03/31 03:20:34;;;;;;;2.15;0.93;;;22.70;30.10;;;;;;5093173;28;20394;-65
2021/03/31 03:23:00;;;;;;;2.42;0.95;;;22.70;30.70;;;;;;5092834;28;20412;-65
2021/03/31 03:25:27;;;;;;;3.47;0.80;;;22.70;30.60;;;;;;5103093;28;20404;-64
2021/03/31 03:27:53;;;;;;;2.53;0.90;;;22.70;30.90;;;;;;5113239;28;20381;-61
2021/03/31 03:30:21;;;;;;;1.48;0.80;;;22.70;31.20;;;;;;5112868;28;20392;-59
2021/03/31 03:32:50;;;;;;;3.95;0.90;;;22.70;30.90;;;;;;5112165;28;20475;-58
2021/03/31 03:35:24;;;;;;;4.65;1.00;;;22.70;31.20;;;;;;5113061;28;20396;-59
2021/03/31 03:37:51;;;;;;;6.25;0.95;;;22.80;32.30;;;;;;5106627;28;20387;-59
2021/03/31 03:40:21;;;;;;;4.50;1.00;;;22.80;32.30;;;;;;5100285;28;20430;-58
2021/03/31 03:42:47;;;;;;;6.40;0.98;;;22.80;32.70;;;;;;5090202;28;20487;-58
2021/03/31 03:45:13;;;;;;;5.55;0.77;;;22.80;32.70;;;;;;5091688;28;20909;-58
2021/03/31 03:47:39;;;;;;;4.07;1.10;;;22.80;33.20;;;;;;5092119;28;20470;-58
2021/03/31 03:50:11;;;;;;;3.75;1.00;;;22.80;32.80;;;;;;5090136;28;20390;-59
2021/03/31 03:52:38;;;;;;;2.97;0.80;;;22.80;31.80;;;;;;5091238;28;20874;-58
2021/03/31 03:55:05;;;;;;;6.57;1.00;;;22.80;31.50;;;;;;5091895;28;20394;-58
2021/03/31 03:57:31;;;;;;;3.20;1.00;;;22.80;31.30;;;;;;5092060;28;20410;-66
2021/03/31 03:59:57;;;;;;;5.07;1.08;;;22.70;31.40;;;;;;5092210;28;20405;-64
2021/03/31 04:02:23;;;;;;;5.78;0.95;;;22.70;31.50;;;;;;5091844;28;20375;-66
2021/03/31 04:04:49;;;;;;;3.55;1.25;;;22.70;31.70;;;;;;5092033;28;20409;-62
2021/03/31 04:07:15;;;;;;;3.65;1.10;;;22.80;31.40;;;;;;5090722;28;20382;-59
2021/03/31 04:09:44;;;;;;;6.07;1.17;;;22.70;31.20;;;;;;5092019;28;20362;-59
2021/03/31 04:12:10;;;;;;;4.33;1.10;;;22.70;30.70;;;;;;5091584;28;20486;-59
2021/03/31 04:14:40;;;;;;;5.13;1.10;;;22.70;30.30;;;;;;5092043;28;20421;-59
2021/03/31 04:17:08;;;;;;;4.53;1.10;;;22.70;30.10;;;;;;5091915;28;20389;-58
2021/03/31 04:19:37;;;;;;;6.68;1.20;;;22.70;30.00;;;;;;5091949;28;20429;-60
2021/03/31 04:22:04;;;;;;;4.10;1.15;;;22.70;30.00;;;;;;5090339;28;20746;-58
2021/03/31 04:24:29;;;;;;;2.90;1.00;;;22.70;30.00;;;;;;5091427;28;20513;-58
2021/03/31 04:26:57;;;;;;;3.53;0.97;;;22.70;30.00;;;;;;5091754;28;20925;-59
2021/03/31 04:29:23;;;;;;;2.80;1.00;;;22.60;29.90;;;;;;5091896;28;20401;-58
2021/03/31 04:31:49;;;;;;;3.72;1.00;;;22.60;29.90;;;;;;5091744;28;20846;-62
2021/03/31 04:34:17;;;;;;;3.20;0.93;;;22.70;29.90;;;;;;5089999;28;20402;-61
2021/03/31 04:36:43;;;;;;;3.25;0.95;;;22.60;29.90;;;;;;5091626;28;20385;-65
2021/03/31 04:39:09;;;;;;;2.10;0.80;;;22.60;29.80;;;;;;5091829;28;20457;-66
2021/03/31 04:41:35;;;;;;;3.70;1.00;;;22.60;29.80;;;;;;5091657;28;20746;-65
2021/03/31 04:44:01;;;;;;;2.38;0.90;;;22.70;29.90;;;;;;5091065;28;20487;-59
2021/03/31 04:46:27;;;;;;;2.22;0.80;;;22.70;29.90;;;;;;5091331;28;21145;-64
2021/03/31 04:48:52;;;;;;;2.67;0.80;;;22.70;29.80;;;;;;5091509;28;20803;-65
2021/03/31 04:51:18;;;;;;;2.38;0.80;;;22.70;29.80;;;;;;5091513;28;20386;-64
2021/03/31 04:53:44;;;;;;;1.37;0.80;;;22.70;29.80;;;;;;5091584;28;20389;-62
2021/03/31 04:56:09;;;;;;;1.70;0.70;;;22.70;29.80;;;;;;5093308;28;20809;-64
2021/03/31 04:58:35;;;;;;;2.40;0.97;;;22.60;29.70;;;;;;5095774;28;20385;-64
2021/03/31 05:01:02;;;;;;;1.90;0.70;;;22.70;29.80;;;;;;5094376;28;20402;-65
2021/03/31 05:03:28;;;;;;;2.17;0.80;;;22.60;29.70;;;;;;5095536;28;20386;-60
2021/03/31 05:05:54;;;;;;;2.63;1.25;;;22.60;29.70;;;;;;5095538;28;20535;-58
2021/03/31 05:08:19;;;;;;;2.30;1.20;;;22.60;29.70;;;;;;5095034;28;20477;-59
2021/03/31 05:10:46;;;;;;;3.63;1.38;;;22.60;29.70;;;;;;5095426;28;20435;-58
2021/03/31 05:13:12;;;;;;;3.13;1.10;;;22.60;29.70;;;;;;5095497;28;20386;-59
2021/03/31 05:15:38;;;;;;;3.55;1.20;;;22.60;29.60;;;;;;5095453;28;20922;-58
2021/03/31 05:18:03;;;;;;;3.15;1.35;;;22.70;29.70;;;;;;5095104;28;20386;-58
2021/03/31 05:20:29;;;;;;;2.33;1.13;;;22.70;29.60;;;;;;5094897;28;20393;-58
2021/03/31 05:22:55;;;;;;;2.72;1.40;;;22.70;29.60;;;;;;5095294;28;20417;-58
2021/03/31 05:25:20;;;;;;;2.90;1.23;;;22.70;29.60;;;;;;5095218;28;20405;-58
2021/03/31 05:27:46;;;;;;;3.22;1.40;;;22.60;29.60;;;;;;5095037;28;20404;-58
2021/03/31 05:30:12;;;;;;;2.60;1.23;;;22.70;29.60;;;;;;5093367;28;20489;-58
2021/03/31 05:32:39;;;;;;;3.30;1.40;;;22.70;29.60;;;;;;5095002;28;20460;-58
2021/03/31 05:35:07;;;;;;;2.72;1.40;;;22.70;29.60;;;;;;5093790;28;20893;-65
2021/03/31 05:37:33;;;;;;;4.15;1.42;;;22.70;29.60;;;;;;5095060;28;20385;-60
2021/03/31 05:39:58;;;;;;;2.80;1.30;;;22.70;29.60;;;;;;5094936;28;20477;-58
2021/03/31 05:42:24;;;;;;;2.65;1.30;;;22.70;30.00;;;;;;5094426;28;20812;-58
2021/03/31 05:44:51;;;;;;;2.17;1.20;;;22.70;29.60;;;;;;5094571;28;20417;-66
2021/03/31 05:47:31;;;;;;;4.05;1.40;;;22.70;29.60;;;;;;5094833;28;20394;-64
2021/03/31 05:49:57;;;;;;;3.10;1.40;;;22.70;29.60;;;;;;5094663;28;20933;-64
2021/03/31 05:52:23;;;;;;;3.50;1.20;;;22.70;29.60;;;;;;5094315;28;20404;-65
2021/03/31 05:54:50;;;;;;;3.50;1.70;;;22.70;29.60;;;;;;5094634;28;20382;-59
2021/03/31 05:57:21;;;;;;;4.90;2.72;;;22.70;29.60;;;;;;5094675;28;20467;-64
2021/03/31 05:59:47;;;;;;;7.50;4.57;;;22.70;29.60;;;;;;5093169;28;20428;-58
2021/03/31 06:02:15;;;;;;;7.57;5.25;;;22.70;29.50;;;;;;5093902;28;20377;-59
2021/03/31 06:04:41;;;;;;;9.40;6.30;;;22.70;29.60;;;;;;5093152;28;20414;-62
2021/03/31 06:07:08;;;;;;;10.13;7.35;;;22.70;29.50;;;;;;5093903;28;20896;-61
2021/03/31 06:09:34;;;;;;;11.38;7.38;;;22.70;29.60;;;;;;5094370;28;20422;-60
2021/03/31 06:12:01;;;;;;;13.07;8.50;;;22.70;30.00;;;;;;5093012;28;20795;-58
2021/03/31 06:14:40;;;;;;;13.63;8.70;;;22.70;29.50;;;;;;5093833;28;20386;-62
2021/03/31 06:17:10;;;;;;;11.98;8.40;;;22.70;29.50;;;;;;5093917;28;20378;-58
2021/03/31 06:19:38;;;;;;;13.15;8.88;;;22.70;29.50;;;;;;5094177;28;20408;-59
2021/03/31 06:25:22;;;;;;;11.82;8.45;;;22.70;29.50;;;;;;5108866;28;20410;-58
2021/03/31 06:27:53;;;;;;;11.80;8.30;;;22.60;29.50;;;;;;5111957;28;20400;-58
2021/03/31 06:30:23;;;;;;;11.93;8.00;;;22.70;29.50;;;;;;5111549;28;20396;-59
2021/03/31 06:32:52;;;;;;;11.63;7.80;;;22.70;29.40;;;;;;5112431;28;20886;-59
2021/03/31 06:35:21;;;;;;;10.95;7.75;;;22.70;29.40;;;;;;5107085;28;20426;-62
2021/03/31 06:37:47;;;;;;;12.13;6.63;;;22.70;29.60;;;;;;5109774;28;20872;-62
2021/03/31 06:40:37;;;;;;;13.38;6.50;;;22.70;29.60;;;;;;5112518;28;20422;-58
2021/03/31 06:43:27;;;;;;;11.80;6.75;;;22.70;29.60;;;;;;5111469;28;20397;-62
2021/03/31 06:46:21;;;;;;;11.90;6.77;;;22.70;29.60;;;;;;5112639;28;20915;-58
2021/03/31 06:48:44;;;;;;;10.77;6.80;;;22.70;29.60;;;;;;5112085;28;20525;-58
2021/03/31 06:51:27;;;;;;;11.40;6.65;;;22.80;29.70;;;;;;5112583;28;20388;-58
2021/03/31 06:53:53;;;;;;;10.80;6.55;;;22.80;29.70;;;;;;5112736;28;20368;-58
2021/03/31 06:56:27;;;;;;;9.43;5.90;;;22.80;29.60;;;;;;5112003;28;20918;-58
2021/03/31 06:58:57;;;;;;;9.68;6.50;;;22.80;29.60;;;;;;5112433;28;20883;-58
2021/03/31 07:01:25;;;;;;;10.15;6.10;;;22.90;29.70;;;;;;5112436;28;20400;-59
2021/03/31 07:03:51;;;;;;;9.75;6.20;;;22.90;29.60;;;;;;5112275;28;20376;-58
2021/03/31 07:06:18;;;;;;;10.63;6.22;;;22.90;29.60;;;;;;5111723;28;20400;-59
2021/03/31 07:08:44;;;;;;;9.60;6.18;;;22.90;29.60;;;;;;5112208;27;20381;-59
2021/03/31 07:11:09;;;;;;;8.90;5.67;;;22.90;29.60;;;;;;5112279;28;20803;-60
2021/03/31 07:13:36;;;;;;;9.20;5.63;;;22.90;29.60;;;;;;5112044;28;20744;-58
2021/03/31 07:16:04;;;;;;;9.20;6.07;;;22.90;29.60;;;;;;5112139;28;20454;-59
2021/03/31 07:18:33;;;;;;;8.43;5.75;;;22.90;29.60;;;;;;5110766;28;20388;-58
2021/03/31 07:20:59;;;;;;;9.88;5.70;;;22.90;29.60;;;;;;5111987;28;20450;-59
2021/03/31 07:23:26;;;;;;;9.38;5.90;;;23.00;29.50;;;;;;5111934;28;20786;-61
2021/03/31 07:25:54;;;;;;;9.57;5.40;;;23.00;29.50;;;;;;5111881;28;20426;-59
2021/03/31 07:28:30;;;;;;;7.40;5.10;;;23.00;29.50;;;;;;5111438;28;20381;-58
2021/03/31 07:30:57;;;;;;;8.70;5.80;;;23.00;29.50;;;;;;5111856;28;20369;-58
2021/03/31 07:33:29;;;;;;;7.82;5.30;;;23.00;29.50;;;;;;5111869;28;20412;-61
2021/03/31 07:35:55;;;;;;;9.18;5.22;;;23.00;29.50;;;;;;5111694;27;20865;-62
2021/03/31 07:38:26;;;;;;;7.87;5.43;;;23.10;29.50;;;;;;5111346;28;20461;-61
2021/03/31 07:40:52;;;;;;;7.82;5.30;;;23.10;29.50;;;;;;5111542;28;20460;-63
2021/03/31 07:43:33;;;;;;;8.00;5.03;;;23.10;29.50;;;;;;5111732;28;20391;-59
2021/03/31 07:46:09;;;;;;;6.90;4.90;;;23.10;29.50;;;;;;5111476;28;20412;-60
2021/03/31 07:48:36;;;;;;;7.60;5.05;;;23.10;29.50;;;;;;5111298;28;20412;-59
2021/03/31 07:51:15;;;;;;;8.07;4.88;;;23.10;29.50;;;;;;5111457;28;20392;-61
2021/03/31 07:53:49;;;;;;;7.78;4.50;;;23.20;29.60;;;;;;5110198;28;20388;-61
2021/03/31 07:56:17;;;;;;;6.90;4.53;;;23.20;29.50;;;;;;5111137;28;20391;-60
2021/03/31 07:59:09;;;;;;;6.30;4.32;;;23.20;29.50;;;;;;5111257;28;20387;-62
2021/03/31 08:01:37;;;;;;;6.60;4.53;;;23.20;29.50;;;;;;5111181;28;20876;-66
2021/03/31 08:04:04;;;;;;;7.37;4.53;;;23.20;29.40;;;;;;5111178;28;20878;-63
2021/03/31 08:06:33;;;;;;;6.68;4.60;;;23.30;29.50;;;;;;5110203;28;20469;-60
2021/03/31 08:09:04;;;;;;;6.13;4.30;;;23.30;29.40;;;;;;5111081;28;20384;-65
2021/03/31 08:11:36;;;;;;;5.90;4.00;;;23.30;29.40;;;;;;5111412;28;20389;-65
2021/03/31 08:14:03;;;;;;;5.70;3.80;;;23.30;29.40;;;;;;5111148;28;20376;-64
2021/03/31 08:16:34;;;;;;;6.05;3.90;;;23.30;29.40;;;;;;5110451;28;20385;-61
2021/03/31 08:19:05;;;;;;;6.10;3.90;;;23.30;29.30;;;;;;5110974;28;20441;-59
2021/03/31 08:21:32;;;;;;;6.73;4.00;;;23.30;29.30;;;;;;5110956;28;20479;-65
2021/03/31 08:23:59;;;;;;;6.13;3.65;;;23.40;29.30;;;;;;5110876;28;20411;-59
2021/03/31 08:26:28;;;;;;;5.15;3.65;;;23.30;29.30;;;;;;5110419;28;20412;-64
2021/03/31 08:28:54;;;;;;;5.43;3.53;;;23.40;29.40;;;;;;5110575;28;20790;-66
2021/03/31 08:31:22;;;;;;;5.57;3.78;;;23.40;29.40;;;;;;5110781;28;20384;-62
2021/03/31 08:33:48;;;;;;;4.80;3.30;;;23.40;29.40;;;;;;5110881;28;20408;-59
2021/03/31 08:36:14;;;;;;;5.88;3.40;;;23.40;29.30;;;;;;5110464;28;20419;-58
2021/03/31 08:38:41;;;;;;;5.55;3.50;;;23.40;29.30;;;;;;5110348;28;20393;-60
2021/03/31 08:41:20;;;;;;;4.90;3.28;;;23.40;29.30;;;;;;5110767;28;20388;-61
2021/03/31 08:43:47;;;;;;;4.70;3.10;;;23.50;29.30;;;;;;5110305;28;20396;-60
2021/03/31 08:46:26;;;;;;;5.28;3.13;;;23.50;29.30;;;;;;5110429;28;20790;-58
2021/03/31 08:48:51;;;;;;;4.38;3.08;;;23.50;29.30;;;;;;5110577;28;20425;-58
2021/03/31 08:51:18;;;;;;;4.80;3.20;;;23.50;29.30;;;;;;5110499;28;20399;-63
2021/03/31 08:53:44;;;;;;;4.78;3.22;;;23.50;29.30;;;;;;5110731;28;20380;-59
2021/03/31 08:56:17;;;;;;;4.63;3.30;;;23.50;29.30;;;;;;5110480;28;20880;-61
2021/03/31 08:58:43;;;;;;;4.50;2.80;;;23.50;29.20;;;;;;5108971;28;20871;-58
2021/03/31 09:01:08;;;;;;;4.78;2.95;;;23.50;29.20;;;;;;5110392;28;20428;-58
2021/03/31 09:03:34;;;;;;;4.97;3.00;;;23.60;29.20;;;;;;5110407;28;20391;-59
2021/03/31 09:06:02;;;;;;;4.30;2.63;;;23.50;29.10;;;;;;5110279;28;20500;-62
2021/03/31 09:08:29;;;;;;;6.22;2.70;;;23.60;29.20;;;;;;5109957;28;20412;-58
2021/03/31 09:11:04;;;;;;;4.23;2.77;;;23.60;29.10;;;;;;5110327;28;20439;-60
2021/03/31 09:13:35;;;;;;;3.88;2.53;;;23.60;29.10;;;;;;5110444;28;20389;-59
2021/03/31 09:16:06;;;;;;;4.00;2.40;;;23.60;29.10;;;;;;5110205;28;20387;-60
2021/03/31 09:18:37;;;;;;;4.78;2.50;;;23.60;29.10;;;;;;5109708;28;20419;-59
2021/03/31 09:21:03;;;;;;;5.47;2.60;;;23.60;29.30;;;;;;5110351;28;20392;-60
2021/03/31 09:23:29;;;;;;;6.27;2.60;;;23.60;29.60;;;;;;5110207;28;20485;-58
2021/03/31 09:25:56;;;;;;;5.78;2.50;;;23.70;29.80;;;;;;5110097;28;20412;-59
2021/03/31 09:28:22;;;;;;;5.57;2.63;;;23.70;29.70;;;;;;5109913;28;20397;-58
2021/03/31 09:30:52;;;;;;;4.97;2.50;;;23.70;29.70;;;;;;5110090;28;20381;-58
2021/03/31 09:33:26;;;;;;;5.22;2.45;;;23.70;29.80;;;;;;5110160;28;20732;-60
2021/03/31 09:35:52;;;;;;;4.15;2.00;;;23.70;30.00;;;;;;5108800;28;20403;-61
2021/03/31 09:38:26;;;;;;;3.47;1.95;;;23.70;30.00;;;;;;5109941;28;20380;-58
2021/03/31 09:41:04;;;;;;;8.95;2.72;;;23.70;29.80;;;;;;5109952;28;20396;-59
2021/03/31 09:43:30;;;;;;;8.48;2.72;;;23.70;29.20;;;;;;5113980;28;20384;-58
2021/03/31 09:45:57;;;;;;;7.32;2.40;;;23.70;29.40;;;;;;5113854;27;20419;-59
2021/03/31 09:48:23;;;;;;;6.15;2.42;;;23.70;29.40;;;;;;5113313;28;20876;-58
2021/03/31 09:50:49;;;;;;;6.00;2.10;;;23.70;29.70;;;;;;5113602;28;20399;-59
2021/03/31 09:53:15;;;;;;;4.75;2.13;;;23.70;29.70;;;;;;5113862;27;20752;-58
2021/03/31 09:55:41;;;;;;;5.45;2.25;;;23.70;29.80;;;;;;5114607;27;20469;-59
2021/03/31 09:58:07;;;;;;;5.32;2.00;;;23.70;30.10;;;;;;5114452;28;20415;-58
2021/03/31 10:00:37;;;;;;;4.72;2.15;;;23.60;30.00;;;;;;5114029;28;20376;-59
2021/03/31 10:03:06;;;;;;;4.57;2.10;;;23.70;29.80;;;;;;5115042;28;20465;-66
2021/03/31 10:05:33;;;;;;;5.03;1.97;;;23.70;29.90;;;;;;5113900;28;20412;-63
2021/03/31 10:08:04;;;;;;;4.68;1.80;;;23.60;30.00;;;;;;5114678;28;20384;-65
2021/03/31 10:10:47;;;;;;;4.97;1.98;;;23.70;30.40;;;;;;5112871;28;20403;-58
2021/03/31 10:13:15;;;;;;;5.63;1.90;;;23.80;29.80;;;;;;5115046;28;20372;-58
2021/03/31 10:15:54;;;;;;;3.55;1.60;;;23.80;29.90;;;;;;5113404;28;20387;-58
2021/03/31 10:18:20;;;;;;;4.20;1.80;;;23.80;29.80;;;;;;5114524;28;20384;-67
2021/03/31 10:20:47;;;;;;;3.08;1.48;;;23.80;29.70;;;;;;5114500;28;20444;-66
2021/03/31 10:23:35;;;;;;;4.03;1.70;;;23.90;29.60;;;;;;5114648;28;20388;-67
2021/03/31 10:26:19;;;;;;;3.23;1.57;;;23.80;29.40;;;;;;5114435;28;20923;-66
2021/03/31 10:28:45;;;;;;;4.22;1.50;;;23.80;29.40;;;;;;5102397;28;20386;-65
2021/03/31 10:31:33;;;;;;;3.15;1.48;;;23.80;29.40;;;;;;5094095;28;20824;-67
2021/03/31 10:33:59;;;;;;;3.03;1.70;;;23.80;29.40;;;;;;5094002;28;20385;-62
2021/03/31 10:50:48;;;;;;;7.60;1.90;;;23.70;29.40;;;;;;5113252;28;20395;-66
2021/03/31 10:53:13;;;;;;;3.80;1.40;;;23.70;29.50;;;;;;5093408;28;20455;-65
2021/03/31 10:55:41;;;;;;;3.47;1.55;;;23.70;29.50;;;;;;5093889;28;20412;-65
2021/03/31 10:58:08;;;;;;;3.45;1.50;;;23.80;29.50;;;;;;5101838;28;20415;-65
2021/03/31 11:00:34;;;;;;;3.40;1.38;;;23.70;29.50;;;;;;5100129;28;20425;-67
2021/03/31 11:03:00;;;;;;;2.20;1.30;;;23.70;29.50;;;;;;5100099;28;20387;-67
2021/03/31 11:05:25;;;;;;;2.92;1.30;;;23.70;29.60;;;;;;5101286;28;20772;-66
2021/03/31 11:07:51;;;;;;;3.50;1.57;;;23.70;29.60;;;;;;5107208;28;20384;-60
2021/03/31 11:10:17;;;;;;;3.85;1.40;;;23.70;29.70;;;;;;5113488;28;20388;-59
2021/03/31 11:12:43;;;;;;;4.33;1.40;;;23.70;29.60;;;;;;5113173;28;20430;-59
2021/03/31 11:15:12;;;;;;;3.90;1.30;;;23.70;29.70;;;;;;5113575;28;20426;-59
2021/03/31 11:18:24;;;;;;;4.35;1.20;;;23.70;29.70;;;;;;5113256;28;20380;-58
2021/03/31 11:28:02;;;;;;;7.45;1.67;;;23.70;29.40;;;;;;5108794;28;20491;-65
2021/03/31 11:30:27;;;;;;;6.30;1.80;;;23.70;29.50;;;;;;5100672;28;20388;-58
2021/03/31 11:32:53;;;;;;;4.93;1.70;;;23.70;29.30;;;;;;5103676;28;20392;-62
2021/03/31 11:35:19;;;;;;;4.28;1.80;;;23.60;29.10;;;;;;5099506;28;20510;-62
2021/03/31 11:37:45;;;;;;;6.75;1.77;;;23.70;29.20;;;;;;5098705;28;20515;-60
2021/03/31 11:40:16;;;;;;;4.03;1.70;;;23.70;29.30;;;;;;5103840;28;20778;-58
2021/03/31 11:42:46;;;;;;;5.70;1.55;;;23.60;29.30;;;;;;5102429;28;20377;-59
2021/03/31 11:45:13;;;;;;;4.68;1.50;;;23.70;29.40;;;;;;5097946;28;20426;-59
2021/03/31 11:47:44;;;;;;;5.53;1.48;;;23.70;29.50;;;;;;5101530;28;20401;-59
2021/03/31 11:50:13;;;;;;;3.53;1.30;;;23.70;29.60;;;;;;5101140;28;20410;-64
2021/03/31 11:52:39;;;;;;;5.65;1.60;;;23.70;29.60;;;;;;5101958;28;20755;-64
2021/03/31 11:55:08;;;;;;;8.18;1.65;;;23.80;29.60;;;;;;5100767;28;20797;-66
2021/03/31 11:57:39;;;;;;;5.93;1.50;;;23.80;29.70;;;;;;5101542;28;20412;-60
2021/03/31 12:00:16;;;;;;;5.88;1.60;;;23.90;29.70;;;;;;5096766;28;20423;-59
2021/03/31 12:02:45;;;;;;;6.13;1.60;;;23.90;29.30;;;;;;5099859;28;20388;-61
2021/03/31 12:05:12;;;;;;;4.45;1.38;;;23.90;29.30;;;;;;5098665;28;20418;-63
2021/03/31 12:07:40;;;;;;;3.78;1.38;;;23.90;29.20;;;;;;5104027;28;20889;-63
2021/03/31 12:10:08;;;;;;;6.83;1.43;;;23.90;28.60;;;;;;5099818;28;20390;-59
2021/03/31 12:12:36;;;;;;;4.95;1.45;;;23.90;28.30;;;;;;5098109;28;20395;-65
2021/03/31 12:15:08;;;;;;;6.97;1.30;;;23.90;28.90;;;;;;5099535;28;20398;-66
2021/03/31 12:17:37;;;;;;;5.35;1.42;;;24.00;29.50;;;;;;5098533;28;20419;-66
2021/03/31 12:20:14;;;;;;;4.28;1.30;;;24.00;29.70;;;;;;5101434;28;20462;-64
2021/03/31 12:22:42;;;;;;;6.10;1.63;;;24.10;29.20;;;;;;5099049;28;20370;-59
2021/03/31 12:25:10;;;;;;;4.83;1.40;;;24.10;29.30;;;;;;5100956;28;20498;-65
2021/03/31 12:27:38;;;;;;;6.53;1.50;;;24.10;29.10;;;;;;5101166;28;20394;-61
2021/03/31 12:30:09;;;;;;;4.68;1.20;;;24.10;28.80;;;;;;5099817;28;20393;-65
2021/03/31 12:32:47;;;;;;;3.92;1.17;;;24.10;28.90;;;;;;5099255;28;20882;-66
2021/03/31 12:35:14;;;;;;;4.27;1.30;;;24.20;28.90;;;;;;5100432;28;20445;-65
2021/03/31 12:37:43;;;;;;;3.15;1.00;;;24.20;28.90;;;;;;5109623;28;20415;-66
2021/03/31 12:40:12;;;;;;;3.35;1.20;;;24.20;28.80;;;;;;5110873;28;20408;-66
2021/03/31 12:42:39;;;;;;;2.30;0.90;;;24.20;28.90;;;;;;5110304;28;20396;-65
2021/03/31 12:45:07;;;;;;;2.60;1.00;;;24.20;28.80;;;;;;5110499;28;20427;-67
2021/03/31 12:47:34;;;;;;;3.35;1.13;;;24.20;28.70;;;;;;5111799;28;20391;-65
2021/03/31 12:50:02;;;;;;;3.75;1.00;;;24.20;28.80;;;;;;5111719;28;20491;-66
2021/03/31 12:52:36;;;;;;;3.55;1.00;;;24.30;29.30;;;;;;5099673;28;20406;-62
2021/03/31 12:55:07;;;;;;;3.60;1.10;;;24.30;28.90;;;;;;5098533;28;20392;-65
2021/03/31 12:57:33;;;;;;;2.30;0.95;;;24.30;28.90;;;;;;5100540;28;20380;-63
2021/03/31 13:00:00;;;;;;;2.85;1.10;;;24.30;28.90;;;;;;5097515;28;20812;-64
2021/03/31 13:02:26;;;;;;;3.15;0.90;;;24.30;29.10;;;;;;5099624;28;20388;-65
2021/03/31 13:04:54;;;;;;;2.13;0.88;;;24.30;29.00;;;;;;5098956;28;20409;-65
2021/03/31 13:07:21;;;;;;;2.47;0.90;;;24.30;29.10;;;;;;5095431;28;20845;-67
2021/03/31 13:09:48;;;;;;;2.80;1.00;;;24.30;29.00;;;;;;5100046;28;20800;-66
2021/03/31 13:12:32;;;;;;;3.08;0.90;;;24.30;29.00;;;;;;5098736;28;20386;-65
2021/03/31 13:25:50;;;;;;;1.92;0.80;;;24.40;29.10;;;;;;5101965;28;20468;-66
2021/03/31 13:29:31;;;;;;;1.88;0.93;;;24.40;28.90;;;;;;5101950;28;20765;-66
2021/03/31 13:31:20;;;;;;;2.40;0.90;;;24.40;28.80;;;;;;5089039;28;20388;-65